sensor_id;sensor_type;location;lat;lon;timestamp;P1;durP1;ratioP1;P2;durP2;ratioP2
21213;SDS011;10764;50.850;2.904;2024-02-23T00:01:12;1204.15;;;999.90;;
21213;SDS011;10764;50.850;2.904;2024-02-23T00:03:40;1205.87;;;999.90;;
21213;SDS011;10764;50.850;2.904;2024-02-23T00:06:07;1205.00;;;999.90;;
21213;SDS011;10764;50.850;2.904;2024-02-23T00:08:35;1206.45;;;999.90;;
21213;SDS011;10764;50.850;2.904;2024-02-23T00:11:04;1203.97;;;999.90;;
21213;SDS011;10764;50.850;2.904;2024-02-23T00:13:32;1207.50;;;999.90;;
21213;SDS011;10764;50.850;2.904;2024-02-23T00:15:59;1204.05;;;999.90;;
21213;SDS011;10764;50.850;2.904;2024-02-23T00:18:27;1204.88;;;999.90;;
21213;SDS011;10764;50.850;2.904;2024-02-23T00:20:54;1204.80;;;999.90;;
21213;SDS011;10764;50.850;2.904;2024-02-23T00:23:22;1206.22;;;999.90;;
21213;SDS011;10764;50.850;2.904;2024-02-23T00:25:50;1206.15;;;999.90;;
21213;SDS011;10764;50.850;2.904;2024-02-23T00:28:17;1204.97;;;999.90;;
21213;SDS011;10764;50.850;2.904;2024-02-23T00:30:44;1207.13;;;999.90;;
21213;SDS011;10764;50.850;2.904;2024-02-23T00:33:12;1205.28;;;999.90;;
21213;SDS011;10764;50.850;2.904;2024-02-23T00:35:39;1206.15;;;999.90;;
21213;SDS011;10764;50.850;2.904;2024-02-23T00:38:07;1208.83;;;999.90;;
21213;SDS011;10764;50.850;2.904;2024-02-23T00:40:34;1208.70;;;999.90;;
21213;SDS011;10764;50.850;2.904;2024-02-23T00:43:02;1204.18;;;999.90;;
21213;SDS011;10764;50.850;2.904;2024-02-23T00:45:29;1205.82;;;999.90;;
21213;SDS011;10764;50.850;2.904;2024-02-23T00:47:58;1207.97;;;999.90;;
21213;SDS011;10764;50.850;2.904;2024-02-23T00:50:26;1207.00;;;999.90;;
21213;SDS011;10764;50.850;2.904;2024-02-23T00:52:54;1204.45;;;999.90;;
21213;SDS011;10764;50.850;2.904;2024-02-23T00:55:21;1203.28;;;999.90;;
21213;SDS011;10764;50.850;2.904;2024-02-23T00:57:48;1202.38;;;999.90;;
21213;SDS011;10764;50.850;2.904;2024-02-23T01:00:16;1204.07;;;999.90;;
21213;SDS011;10764;50.850;2.904;2024-02-23T01:02:44;1204.07;;;999.90;;
21213;SDS011;10764;50.850;2.904;2024-02-23T01:05:10;1201.45;;;999.90;;
21213;SDS011;10764;50.850;2.904;2024-02-23T01:07:38;1203.63;;;999.90;;
21213;SDS011;10764;50.850;2.904;2024-02-23T01:10:05;1205.78;;;999.90;;
21213;SDS011;10764;50.850;2.904;2024-02-23T01:12:33;1202.65;;;999.90;;
21213;SDS011;10764;50.850;2.904;2024-02-23T01:15:00;1205.43;;;999.90;;
21213;SDS011;10764;50.850;2.904;2024-02-23T01:17:31;1202.35;;;999.90;;
21213;SDS011;10764;50.850;2.904;2024-02-23T01:19:59;1205.15;;;999.90;;
21213;SDS011;10764;50.850;2.904;2024-02-23T01:22:26;1203.57;;;999.90;;
21213;SDS011;10764;50.850;2.904;2024-02-23T01:24:53;1205.17;;;999.90;;
21213;SDS011;10764;50.850;2.904;2024-02-23T01:27:21;1205.23;;;999.90;;
21213;SDS011;10764;50.850;2.904;2024-02-23T01:29:48;1206.80;;;999.90;;
21213;SDS011;10764;50.850;2.904;2024-02-23T01:32:15;1203.85;;;999.90;;
21213;SDS011;10764;50.850;2.904;2024-02-23T01:34:43;1203.03;;;999.90;;
21213;SDS011;10764;50.850;2.904;2024-02-23T01:37:10;1202.00;;;999.90;;
21213;SDS011;10764;50.850;2.904;2024-02-23T01:39:38;1208.32;;;999.90;;
21213;SDS011;10764;50.850;2.904;2024-02-23T01:42:05;1205.82;;;999.90;;
21213;SDS011;10764;50.850;2.904;2024-02-23T01:44:32;1202.50;;;999.90;;
21213;SDS011;10764;50.850;2.904;2024-02-23T01:47:00;1201.53;;;999.90;;
21213;SDS011;10764;50.850;2.904;2024-02-23T01:49:27;1203.47;;;999.90;;
21213;SDS011;10764;50.850;2.904;2024-02-23T01:51:58;1206.90;;;999.90;;
21213;SDS011;10764;50.850;2.904;2024-02-23T01:54:25;1204.63;;;999.90;;
21213;SDS011;10764;50.850;2.904;2024-02-23T01:56:54;1205.82;;;999.90;;
21213;SDS011;10764;50.850;2.904;2024-02-23T01:59:23;1210.53;;;999.90;;
21213;SDS011;10764;50.850;2.904;2024-02-23T02:01:51;1208.90;;;999.90;;
21213;SDS011;10764;50.850;2.904;2024-02-23T02:04:18;1208.03;;;999.90;;
21213;SDS011;10764;50.850;2.904;2024-02-23T02:06:46;1207.60;;;999.90;;
21213;SDS011;10764;50.850;2.904;2024-02-23T02:09:13;1203.53;;;999.90;;
21213;SDS011;10764;50.850;2.904;2024-02-23T02:11:49;1203.63;;;999.90;;
21213;SDS011;10764;50.850;2.904;2024-02-23T02:14:16;1200.00;;;999.90;;
21213;SDS011;10764;50.850;2.904;2024-02-23T02:16:44;1202.35;;;999.90;;
21213;SDS011;10764;50.850;2.904;2024-02-23T02:19:13;1203.88;;;999.90;;
21213;SDS011;10764;50.850;2.904;2024-02-23T02:21:41;1202.18;;;999.90;;
21213;SDS011;10764;50.850;2.904;2024-02-23T02:24:08;1200.20;;;999.90;;
21213;SDS011;10764;50.850;2.904;2024-02-23T02:26:38;1201.63;;;999.90;;
21213;SDS011;10764;50.850;2.904;2024-02-23T02:29:06;1197.15;;;999.90;;
21213;SDS011;10764;50.850;2.904;2024-02-23T02:31:33;1197.13;;;999.90;;
21213;SDS011;10764;50.850;2.904;2024-02-23T02:34:04;1202.25;;;999.90;;
21213;SDS011;10764;50.850;2.904;2024-02-23T02:36:31;1203.57;;;999.90;;
21213;SDS011;10764;50.850;2.904;2024-02-23T02:38:59;1205.05;;;999.90;;
21213;SDS011;10764;50.850;2.904;2024-02-23T02:41:27;1205.40;;;999.90;;
21213;SDS011;10764;50.850;2.904;2024-02-23T02:43:56;1203.93;;;999.90;;
21213;SDS011;10764;50.850;2.904;2024-02-23T02:46:23;1203.45;;;999.90;;
21213;SDS011;10764;50.850;2.904;2024-02-23T02:48:50;1200.38;;;999.90;;
21213;SDS011;10764;50.850;2.904;2024-02-23T02:51:18;1202.63;;;999.90;;
21213;SDS011;10764;50.850;2.904;2024-02-23T02:53:45;1197.03;;;999.90;;
21213;SDS011;10764;50.850;2.904;2024-02-23T02:56:13;1200.03;;;999.90;;
21213;SDS011;10764;50.850;2.904;2024-02-23T02:58:40;1201.95;;;999.90;;
21213;SDS011;10764;50.850;2.904;2024-02-23T03:01:07;1197.78;;;999.90;;
21213;SDS011;10764;50.850;2.904;2024-02-23T03:03:35;1202.00;;;999.90;;
21213;SDS011;10764;50.850;2.904;2024-02-23T03:06:02;1201.07;;;999.90;;
21213;SDS011;10764;50.850;2.904;2024-02-23T03:08:30;1200.88;;;999.90;;
21213;SDS011;10764;50.850;2.904;2024-02-23T03:10:57;1202.60;;;999.90;;
21213;SDS011;10764;50.850;2.904;2024-02-23T03:13:24;1203.40;;;999.90;;
21213;SDS011;10764;50.850;2.904;2024-02-23T03:15:52;1203.05;;;999.90;;
21213;SDS011;10764;50.850;2.904;2024-02-23T03:18:19;1201.82;;;999.90;;
21213;SDS011;10764;50.850;2.904;2024-02-23T03:20:47;1197.85;;;999.90;;
21213;SDS011;10764;50.850;2.904;2024-02-23T03:23:14;1202.40;;;999.90;;
21213;SDS011;10764;50.850;2.904;2024-02-23T03:25:41;1199.90;;;999.90;;
21213;SDS011;10764;50.850;2.904;2024-02-23T03:28:09;1201.68;;;999.90;;
21213;SDS011;10764;50.850;2.904;2024-02-23T03:30:36;1201.03;;;999.90;;
21213;SDS011;10764;50.850;2.904;2024-02-23T03:33:03;1198.15;;;999.90;;
21213;SDS011;10764;50.850;2.904;2024-02-23T03:35:31;1202.18;;;999.90;;
21213;SDS011;10764;50.850;2.904;2024-02-23T03:37:58;1190.07;;;999.90;;
21213;SDS011;10764;50.850;2.904;2024-02-23T03:40:27;1199.30;;;999.90;;
21213;SDS011;10764;50.850;2.904;2024-02-23T03:42:54;1192.72;;;999.90;;
21213;SDS011;10764;50.850;2.904;2024-02-23T03:45:22;1190.63;;;999.90;;
21213;SDS011;10764;50.850;2.904;2024-02-23T03:47:49;1170.75;;;999.90;;
21213;SDS011;10764;50.850;2.904;2024-02-23T03:50:16;1195.13;;;999.90;;
21213;SDS011;10764;50.850;2.904;2024-02-23T03:52:44;1167.32;;;999.90;;
21213;SDS011;10764;50.850;2.904;2024-02-23T03:55:14;1174.17;;;999.90;;
21213;SDS011;10764;50.850;2.904;2024-02-23T03:57:41;1177.18;;;999.90;;
21213;SDS011;10764;50.850;2.904;2024-02-23T04:00:12;1170.78;;;999.90;;
21213;SDS011;10764;50.850;2.904;2024-02-23T04:02:40;1169.25;;;999.90;;
21213;SDS011;10764;50.850;2.904;2024-02-23T04:05:08;1168.50;;;999.90;;
21213;SDS011;10764;50.850;2.904;2024-02-23T04:07:35;1167.43;;;999.90;;
21213;SDS011;10764;50.850;2.904;2024-02-23T04:10:02;1169.30;;;999.90;;
21213;SDS011;10764;50.850;2.904;2024-02-23T04:12:30;1165.97;;;999.90;;
21213;SDS011;10764;50.850;2.904;2024-02-23T04:14:58;1170.75;;;999.90;;
21213;SDS011;10764;50.850;2.904;2024-02-23T04:17:25;1173.43;;;999.90;;
21213;SDS011;10764;50.850;2.904;2024-02-23T04:19:52;1171.97;;;999.90;;
21213;SDS011;10764;50.850;2.904;2024-02-23T04:22:20;1175.10;;;999.90;;
21213;SDS011;10764;50.850;2.904;2024-02-23T04:24:47;1176.18;;;999.90;;
21213;SDS011;10764;50.850;2.904;2024-02-23T04:27:14;1187.93;;;999.90;;
21213;SDS011;10764;50.850;2.904;2024-02-23T04:29:42;1175.30;;;999.90;;
21213;SDS011;10764;50.850;2.904;2024-02-23T04:32:09;1178.22;;;999.90;;
21213;SDS011;10764;50.850;2.904;2024-02-23T04:34:36;1172.60;;;999.90;;
21213;SDS011;10764;50.850;2.904;2024-02-23T04:37:04;1168.95;;;999.90;;
21213;SDS011;10764;50.850;2.904;2024-02-23T04:39:31;1167.55;;;999.90;;
21213;SDS011;10764;50.850;2.904;2024-02-23T04:41:58;1170.50;;;999.90;;
21213;SDS011;10764;50.850;2.904;2024-02-23T04:44:25;1169.35;;;999.90;;
21213;SDS011;10764;50.850;2.904;2024-02-23T04:46:53;1170.43;;;999.90;;
21213;SDS011;10764;50.850;2.904;2024-02-23T04:49:20;1171.45;;;999.90;;
21213;SDS011;10764;50.850;2.904;2024-02-23T04:51:48;1173.13;;;999.90;;
21213;SDS011;10764;50.850;2.904;2024-02-23T04:54:15;1177.13;;;999.90;;
21213;SDS011;10764;50.850;2.904;2024-02-23T04:56:42;1173.97;;;999.90;;
21213;SDS011;10764;50.850;2.904;2024-02-23T04:59:10;1178.35;;;999.90;;
21213;SDS011;10764;50.850;2.904;2024-02-23T05:01:37;1194.45;;;999.90;;
21213;SDS011;10764;50.850;2.904;2024-02-23T05:04:04;1174.57;;;999.90;;
21213;SDS011;10764;50.850;2.904;2024-02-23T05:06:32;1168.05;;;999.90;;
21213;SDS011;10764;50.850;2.904;2024-02-23T05:08:59;1212.07;;;999.90;;
21213;SDS011;10764;50.850;2.904;2024-02-23T05:11:27;1205.68;;;999.90;;
21213;SDS011;10764;50.850;2.904;2024-02-23T05:13:55;1197.28;;;999.90;;
21213;SDS011;10764;50.850;2.904;2024-02-23T05:16:22;1197.30;;;999.90;;
21213;SDS011;10764;50.850;2.904;2024-02-23T05:18:49;1186.07;;;999.90;;
21213;SDS011;10764;50.850;2.904;2024-02-23T05:21:17;1184.30;;;999.90;;
21213;SDS011;10764;50.850;2.904;2024-02-23T05:23:44;1190.63;;;999.90;;
21213;SDS011;10764;50.850;2.904;2024-02-23T05:26:12;1180.90;;;999.90;;
21213;SDS011;10764;50.850;2.904;2024-02-23T05:28:40;1177.75;;;999.90;;
21213;SDS011;10764;50.850;2.904;2024-02-23T05:31:09;1198.53;;;999.90;;
21213;SDS011;10764;50.850;2.904;2024-02-23T05:33:36;1197.65;;;999.90;;
21213;SDS011;10764;50.850;2.904;2024-02-23T05:36:05;1189.57;;;999.90;;
21213;SDS011;10764;50.850;2.904;2024-02-23T05:38:32;1195.43;;;999.90;;
21213;SDS011;10764;50.850;2.904;2024-02-23T05:40:59;1192.13;;;999.90;;
21213;SDS011;10764;50.850;2.904;2024-02-23T05:43:27;1185.18;;;999.90;;
21213;SDS011;10764;50.850;2.904;2024-02-23T05:45:54;1194.68;;;999.90;;
21213;SDS011;10764;50.850;2.904;2024-02-23T05:48:23;1192.95;;;999.90;;
21213;SDS011;10764;50.850;2.904;2024-02-23T05:50:51;1190.60;;;999.90;;
21213;SDS011;10764;50.850;2.904;2024-02-23T05:53:18;1186.53;;;999.90;;
21213;SDS011;10764;50.850;2.904;2024-02-23T05:55:46;1188.43;;;999.90;;
21213;SDS011;10764;50.850;2.904;2024-02-23T05:58:13;1196.28;;;999.90;;
21213;SDS011;10764;50.850;2.904;2024-02-23T06:00:42;1182.35;;;999.90;;
21213;SDS011;10764;50.850;2.904;2024-02-23T06:03:10;1178.43;;;999.90;;
21213;SDS011;10764;50.850;2.904;2024-02-23T06:05:39;1204.35;;;999.90;;
21213;SDS011;10764;50.850;2.904;2024-02-23T06:08:06;1195.22;;;999.90;;
21213;SDS011;10764;50.850;2.904;2024-02-23T06:10:34;1204.78;;;999.90;;
21213;SDS011;10764;50.850;2.904;2024-02-23T06:13:04;1204.33;;;999.90;;
21213;SDS011;10764;50.850;2.904;2024-02-23T06:15:31;1203.23;;;999.90;;
21213;SDS011;10764;50.850;2.904;2024-02-23T06:17:59;1204.43;;;999.90;;
21213;SDS011;10764;50.850;2.904;2024-02-23T06:20:26;1205.73;;;999.90;;
21213;SDS011;10764;50.850;2.904;2024-02-23T06:22:53;1204.13;;;999.90;;
21213;SDS011;10764;50.850;2.904;2024-02-23T06:25:21;1209.32;;;999.90;;
21213;SDS011;10764;50.850;2.904;2024-02-23T06:27:48;1205.43;;;999.90;;
21213;SDS011;10764;50.850;2.904;2024-02-23T06:30:18;1206.13;;;999.90;;
21213;SDS011;10764;50.850;2.904;2024-02-23T06:32:47;1199.15;;;999.90;;
21213;SDS011;10764;50.850;2.904;2024-02-23T06:35:14;1201.68;;;999.90;;
21213;SDS011;10764;50.850;2.904;2024-02-23T06:37:42;1200.07;;;999.90;;
21213;SDS011;10764;50.850;2.904;2024-02-23T06:40:09;1203.97;;;999.90;;
21213;SDS011;10764;50.850;2.904;2024-02-23T06:42:38;1201.35;;;999.90;;
21213;SDS011;10764;50.850;2.904;2024-02-23T06:45:06;1201.00;;;999.90;;
21213;SDS011;10764;50.850;2.904;2024-02-23T06:47:34;1204.20;;;999.90;;
21213;SDS011;10764;50.850;2.904;2024-02-23T06:50:01;1207.00;;;999.90;;
21213;SDS011;10764;50.850;2.904;2024-02-23T06:52:30;1203.30;;;999.90;;
21213;SDS011;10764;50.850;2.904;2024-02-23T06:54:58;1205.80;;;999.90;;
21213;SDS011;10764;50.850;2.904;2024-02-23T06:57:25;1206.47;;;999.90;;
21213;SDS011;10764;50.850;2.904;2024-02-23T06:59:53;1203.97;;;999.90;;
21213;SDS011;10764;50.850;2.904;2024-02-23T07:02:20;1199.30;;;999.90;;
21213;SDS011;10764;50.850;2.904;2024-02-23T07:04:48;1200.88;;;999.90;;
21213;SDS011;10764;50.850;2.904;2024-02-23T07:07:15;1199.65;;;999.90;;
21213;SDS011;10764;50.850;2.904;2024-02-23T07:09:42;1199.78;;;999.90;;
21213;SDS011;10764;50.850;2.904;2024-02-23T07:12:09;1200.90;;;999.90;;
21213;SDS011;10764;50.850;2.904;2024-02-23T07:14:40;1201.00;;;999.90;;
21213;SDS011;10764;50.850;2.904;2024-02-23T07:17:07;1198.47;;;999.90;;
21213;SDS011;10764;50.850;2.904;2024-02-23T07:19:34;1202.25;;;999.90;;
21213;SDS011;10764;50.850;2.904;2024-02-23T07:22:02;1197.43;;;999.90;;
21213;SDS011;10764;50.850;2.904;2024-02-23T07:24:29;1197.70;;;999.90;;
21213;SDS011;10764;50.850;2.904;2024-02-23T07:26:57;1195.05;;;999.90;;
21213;SDS011;10764;50.850;2.904;2024-02-23T07:29:24;1197.40;;;999.90;;
21213;SDS011;10764;50.850;2.904;2024-02-23T07:31:51;1198.28;;;999.90;;
21213;SDS011;10764;50.850;2.904;2024-02-23T07:34:19;1194.80;;;999.90;;
21213;SDS011;10764;50.850;2.904;2024-02-23T07:36:46;1190.97;;;999.90;;
21213;SDS011;10764;50.850;2.904;2024-02-23T07:39:13;1187.18;;;999.90;;
21213;SDS011;10764;50.850;2.904;2024-02-23T07:41:40;1188.85;;;999.90;;
21213;SDS011;10764;50.850;2.904;2024-02-23T07:44:08;1187.30;;;999.90;;
21213;SDS011;10764;50.850;2.904;2024-02-23T07:46:35;1190.47;;;999.90;;
21213;SDS011;10764;50.850;2.904;2024-02-23T07:49:03;1185.35;;;999.90;;
21213;SDS011;10764;50.850;2.904;2024-02-23T07:51:36;1189.85;;;999.90;;
21213;SDS011;10764;50.850;2.904;2024-02-23T07:54:03;1189.40;;;999.90;;
21213;SDS011;10764;50.850;2.904;2024-02-23T07:56:31;1191.90;;;999.90;;
21213;SDS011;10764;50.850;2.904;2024-02-23T07:58:59;1185.05;;;999.90;;
21213;SDS011;10764;50.850;2.904;2024-02-23T08:01:29;1179.67;;;999.90;;
21213;SDS011;10764;50.850;2.904;2024-02-23T08:03:57;1178.72;;;999.90;;
21213;SDS011;10764;50.850;2.904;2024-02-23T08:06:25;1186.47;;;999.90;;
21213;SDS011;10764;50.850;2.904;2024-02-23T08:08:52;1181.28;;;999.90;;
21213;SDS011;10764;50.850;2.904;2024-02-23T08:11:21;1195.10;;;999.90;;
21213;SDS011;10764;50.850;2.904;2024-02-23T08:13:49;1191.07;;;999.90;;
21213;SDS011;10764;50.850;2.904;2024-02-23T08:16:17;1195.70;;;999.90;;
21213;SDS011;10764;50.850;2.904;2024-02-23T08:18:44;1195.53;;;999.90;;
21213;SDS011;10764;50.850;2.904;2024-02-23T08:21:11;1195.63;;;999.90;;
21213;SDS011;10764;50.850;2.904;2024-02-23T08:23:39;1189.85;;;999.90;;
21213;SDS011;10764;50.850;2.904;2024-02-23T08:26:06;1190.33;;;999.90;;
21213;SDS011;10764;50.850;2.904;2024-02-23T08:28:34;1186.82;;;999.90;;
21213;SDS011;10764;50.850;2.904;2024-02-23T08:31:01;1185.38;;;999.90;;
21213;SDS011;10764;50.850;2.904;2024-02-23T08:33:28;1183.85;;;999.90;;
21213;SDS011;10764;50.850;2.904;2024-02-23T08:35:56;1189.93;;;999.90;;
21213;SDS011;10764;50.850;2.904;2024-02-23T08:38:23;1191.90;;;999.90;;
21213;SDS011;10764;50.850;2.904;2024-02-23T08:40:50;1190.20;;;999.90;;
21213;SDS011;10764;50.850;2.904;2024-02-23T08:43:18;1192.03;;;999.90;;
21213;SDS011;10764;50.850;2.904;2024-02-23T08:45:46;1187.47;;;999.90;;
21213;SDS011;10764;50.850;2.904;2024-02-23T08:48:13;1187.30;;;999.90;;
21213;SDS011;10764;50.850;2.904;2024-02-23T08:50:41;1186.05;;;999.90;;
21213;SDS011;10764;50.850;2.904;2024-02-23T08:53:09;1182.72;;;999.90;;
21213;SDS011;10764;50.850;2.904;2024-02-23T08:55:36;1188.72;;;999.90;;
21213;SDS011;10764;50.850;2.904;2024-02-23T08:58:04;1186.47;;;999.90;;
21213;SDS011;10764;50.850;2.904;2024-02-23T09:00:32;1187.43;;;999.90;;
21213;SDS011;10764;50.850;2.904;2024-02-23T09:02:59;1189.45;;;999.90;;
21213;SDS011;10764;50.850;2.904;2024-02-23T09:05:29;1187.82;;;999.90;;
21213;SDS011;10764;50.850;2.904;2024-02-23T09:07:57;1186.78;;;999.90;;
21213;SDS011;10764;50.850;2.904;2024-02-23T09:10:24;1189.22;;;999.90;;
21213;SDS011;10764;50.850;2.904;2024-02-23T09:12:51;1187.15;;;999.90;;
21213;SDS011;10764;50.850;2.904;2024-02-23T09:15:20;1189.80;;;999.90;;
21213;SDS011;10764;50.850;2.904;2024-02-23T09:17:47;1188.72;;;999.90;;
21213;SDS011;10764;50.850;2.904;2024-02-23T09:20:15;1188.18;;;999.90;;
21213;SDS011;10764;50.850;2.904;2024-02-23T09:22:43;1187.03;;;999.90;;
21213;SDS011;10764;50.850;2.904;2024-02-23T09:25:10;1184.22;;;999.90;;
21213;SDS011;10764;50.850;2.904;2024-02-23T09:27:37;1185.07;;;999.90;;
21213;SDS011;10764;50.850;2.904;2024-02-23T09:30:10;1187.55;;;999.90;;
21213;SDS011;10764;50.850;2.904;2024-02-23T09:32:38;1186.82;;;999.90;;
21213;SDS011;10764;50.850;2.904;2024-02-23T09:35:06;1186.93;;;999.90;;
21213;SDS011;10764;50.850;2.904;2024-02-23T09:37:33;1184.88;;;999.90;;
21213;SDS011;10764;50.850;2.904;2024-02-23T09:40:00;1204.20;;;999.90;;
21213;SDS011;10764;50.850;2.904;2024-02-23T09:42:28;1201.22;;;999.90;;
21213;SDS011;10764;50.850;2.904;2024-02-23T09:44:59;1205.05;;;999.90;;
21213;SDS011;10764;50.850;2.904;2024-02-23T09:47:27;1207.32;;;999.90;;
21213;SDS011;10764;50.850;2.904;2024-02-23T09:49:55;1204.43;;;999.90;;
21213;SDS011;10764;50.850;2.904;2024-02-23T09:52:22;1206.88;;;999.90;;
21213;SDS011;10764;50.850;2.904;2024-02-23T09:54:50;1205.50;;;999.90;;
21213;SDS011;10764;50.850;2.904;2024-02-23T09:57:17;1201.80;;;999.90;;
21213;SDS011;10764;50.850;2.904;2024-02-23T09:59:45;1204.53;;;999.90;;
21213;SDS011;10764;50.850;2.904;2024-02-23T10:02:15;1204.87;;;999.90;;
21213;SDS011;10764;50.850;2.904;2024-02-23T10:04:44;1202.40;;;999.90;;
21213;SDS011;10764;50.850;2.904;2024-02-23T10:07:15;1204.45;;;999.90;;
21213;SDS011;10764;50.850;2.904;2024-02-23T10:09:45;1205.70;;;999.90;;
21213;SDS011;10764;50.850;2.904;2024-02-23T10:12:12;1204.30;;;999.90;;
21213;SDS011;10764;50.850;2.904;2024-02-23T10:14:41;1201.38;;;999.90;;
21213;SDS011;10764;50.850;2.904;2024-02-23T10:17:09;1198.55;;;999.90;;
21213;SDS011;10764;50.850;2.904;2024-02-23T10:19:36;1200.82;;;999.90;;
21213;SDS011;10764;50.850;2.904;2024-02-23T10:22:04;1201.05;;;999.90;;
21213;SDS011;10764;50.850;2.904;2024-02-23T10:24:31;1200.18;;;999.90;;
21213;SDS011;10764;50.850;2.904;2024-02-23T10:27:00;1198.57;;;999.90;;
21213;SDS011;10764;50.850;2.904;2024-02-23T10:29:28;1203.57;;;999.90;;
21213;SDS011;10764;50.850;2.904;2024-02-23T10:31:56;1202.93;;;999.90;;
21213;SDS011;10764;50.850;2.904;2024-02-23T10:34:25;1203.10;;;999.90;;
21213;SDS011;10764;50.850;2.904;2024-02-23T10:36:54;1205.93;;;999.90;;
21213;SDS011;10764;50.850;2.904;2024-02-23T10:39:22;1206.73;;;999.90;;
21213;SDS011;10764;50.850;2.904;2024-02-23T10:41:59;1207.63;;;999.90;;
21213;SDS011;10764;50.850;2.904;2024-02-23T10:44:27;1207.10;;;999.90;;
21213;SDS011;10764;50.850;2.904;2024-02-23T10:46:55;1208.53;;;999.90;;
21213;SDS011;10764;50.850;2.904;2024-02-23T10:49:25;1207.67;;;999.90;;
21213;SDS011;10764;50.850;2.904;2024-02-23T10:51:53;1208.35;;;999.90;;
21213;SDS011;10764;50.850;2.904;2024-02-23T10:54:21;1210.22;;;999.90;;
21213;SDS011;10764;50.850;2.904;2024-02-23T10:56:50;1210.30;;;999.90;;
21213;SDS011;10764;50.850;2.904;2024-02-23T10:59:18;1212.03;;;999.90;;
21213;SDS011;10764;50.850;2.904;2024-02-23T11:01:46;1212.60;;;999.90;;
21213;SDS011;10764;50.850;2.904;2024-02-23T11:04:19;1210.78;;;999.90;;
21213;SDS011;10764;50.850;2.904;2024-02-23T11:06:56;1212.30;;;999.90;;
21213;SDS011;10764;50.850;2.904;2024-02-23T11:09:25;1211.20;;;999.90;;
21213;SDS011;10764;50.850;2.904;2024-02-23T11:11:54;1208.90;;;999.90;;
21213;SDS011;10764;50.850;2.904;2024-02-23T11:14:29;1210.45;;;999.90;;
21213;SDS011;10764;50.850;2.904;2024-02-23T11:17:02;1208.40;;;999.90;;
21213;SDS011;10764;50.850;2.904;2024-02-23T11:19:33;1204.15;;;999.90;;
21213;SDS011;10764;50.850;2.904;2024-02-23T11:22:04;1196.65;;;999.90;;
21213;SDS011;10764;50.850;2.904;2024-02-23T11:24:44;1197.67;;;999.90;;
21213;SDS011;10764;50.850;2.904;2024-02-23T11:27:15;1195.45;;;999.90;;
21213;SDS011;10764;50.850;2.904;2024-02-23T11:29:47;1199.57;;;999.90;;
21213;SDS011;10764;50.850;2.904;2024-02-23T11:32:20;1196.70;;;999.90;;
21213;SDS011;10764;50.850;2.904;2024-02-23T11:34:53;1195.07;;;999.90;;
21213;SDS011;10764;50.850;2.904;2024-02-23T11:37:22;1202.32;;;999.90;;
21213;SDS011;10764;50.850;2.904;2024-02-23T11:39:49;1206.05;;;999.90;;
21213;SDS011;10764;50.850;2.904;2024-02-23T11:42:17;1196.45;;;999.90;;
21213;SDS011;10764;50.850;2.904;2024-02-23T11:44:45;1197.35;;;999.90;;
21213;SDS011;10764;50.850;2.904;2024-02-23T11:47:13;1197.70;;;999.90;;
21213;SDS011;10764;50.850;2.904;2024-02-23T11:49:40;1196.18;;;999.90;;
21213;SDS011;10764;50.850;2.904;2024-02-23T11:52:08;1194.32;;;999.90;;
21213;SDS011;10764;50.850;2.904;2024-02-23T11:54:36;1201.53;;;999.90;;
21213;SDS011;10764;50.850;2.904;2024-02-23T11:57:04;1199.82;;;999.90;;
21213;SDS011;10764;50.850;2.904;2024-02-23T11:59:32;1201.28;;;999.90;;
21213;SDS011;10764;50.850;2.904;2024-02-23T12:01:59;1202.38;;;999.90;;
21213;SDS011;10764;50.850;2.904;2024-02-23T12:04:31;1199.15;;;999.90;;
21213;SDS011;10764;50.850;2.904;2024-02-23T12:06:58;1201.95;;;999.90;;
21213;SDS011;10764;50.850;2.904;2024-02-23T12:09:26;1203.27;;;999.90;;
21213;SDS011;10764;50.850;2.904;2024-02-23T12:11:54;1200.10;;;999.90;;
21213;SDS011;10764;50.850;2.904;2024-02-23T12:14:21;1201.20;;;999.90;;
21213;SDS011;10764;50.850;2.904;2024-02-23T12:16:48;1198.32;;;999.90;;
21213;SDS011;10764;50.850;2.904;2024-02-23T12:19:16;1199.30;;;999.90;;
21213;SDS011;10764;50.850;2.904;2024-02-23T12:21:46;1200.55;;;999.90;;
21213;SDS011;10764;50.850;2.904;2024-02-23T12:24:13;1200.93;;;999.90;;
21213;SDS011;10764;50.850;2.904;2024-02-23T12:26:41;1194.75;;;999.90;;
21213;SDS011;10764;50.850;2.904;2024-02-23T12:29:09;1196.63;;;999.90;;
21213;SDS011;10764;50.850;2.904;2024-02-23T12:31:36;1200.93;;;999.90;;
21213;SDS011;10764;50.850;2.904;2024-02-23T12:34:04;1198.22;;;999.90;;
21213;SDS011;10764;50.850;2.904;2024-02-23T12:36:31;1197.18;;;999.90;;
21213;SDS011;10764;50.850;2.904;2024-02-23T12:39:01;1196.47;;;999.90;;
21213;SDS011;10764;50.850;2.904;2024-02-23T12:41:29;1198.75;;;999.90;;
21213;SDS011;10764;50.850;2.904;2024-02-23T12:43:56;1197.53;;;999.90;;
21213;SDS011;10764;50.850;2.904;2024-02-23T12:46:24;1199.65;;;999.90;;
21213;SDS011;10764;50.850;2.904;2024-02-23T12:48:52;1196.38;;;999.90;;
21213;SDS011;10764;50.850;2.904;2024-02-23T12:51:24;1195.45;;;999.90;;
21213;SDS011;10764;50.850;2.904;2024-02-23T12:53:51;1199.38;;;999.90;;
21213;SDS011;10764;50.850;2.904;2024-02-23T12:56:19;1203.38;;;999.90;;
21213;SDS011;10764;50.850;2.904;2024-02-23T12:58:46;1201.90;;;999.90;;
21213;SDS011;10764;50.850;2.904;2024-02-23T13:01:14;1204.50;;;999.90;;
21213;SDS011;10764;50.850;2.904;2024-02-23T13:03:41;1199.97;;;999.90;;
21213;SDS011;10764;50.850;2.904;2024-02-23T13:06:09;1196.53;;;999.90;;
21213;SDS011;10764;50.850;2.904;2024-02-23T13:08:36;1197.55;;;999.90;;
21213;SDS011;10764;50.850;2.904;2024-02-23T13:11:05;1198.55;;;999.90;;
21213;SDS011;10764;50.850;2.904;2024-02-23T13:13:33;1194.78;;;999.90;;
21213;SDS011;10764;50.850;2.904;2024-02-23T13:16:00;1193.57;;;999.90;;
21213;SDS011;10764;50.850;2.904;2024-02-23T13:18:27;1200.83;;;999.90;;
21213;SDS011;10764;50.850;2.904;2024-02-23T13:20:55;1198.40;;;999.90;;
21213;SDS011;10764;50.850;2.904;2024-02-23T13:23:23;1196.78;;;999.90;;
21213;SDS011;10764;50.850;2.904;2024-02-23T13:25:51;1198.28;;;999.90;;
21213;SDS011;10764;50.850;2.904;2024-02-23T13:28:18;1200.40;;;999.90;;
21213;SDS011;10764;50.850;2.904;2024-02-23T13:30:45;1199.77;;;999.90;;
21213;SDS011;10764;50.850;2.904;2024-02-23T13:33:13;1196.20;;;999.90;;
21213;SDS011;10764;50.850;2.904;2024-02-23T13:35:41;1197.78;;;999.90;;
21213;SDS011;10764;50.850;2.904;2024-02-23T13:38:09;1188.10;;;999.90;;
21213;SDS011;10764;50.850;2.904;2024-02-23T13:40:37;1175.63;;;999.90;;
21213;SDS011;10764;50.850;2.904;2024-02-23T13:43:04;1179.20;;;999.90;;
21213;SDS011;10764;50.850;2.904;2024-02-23T13:45:31;1184.13;;;999.90;;
21213;SDS011;10764;50.850;2.904;2024-02-23T13:48:02;1192.32;;;999.90;;